Terminal Aerodrome Forecast
Issued by NWS Sterling, VA

Home | Current Version | Previous Version | Text Only | Print | Product List | Glossary On
Versions: 1 2 3 4 5 6 7 8 9 10 11 12 13 14 15 16 17 18 19 20 21 22 23 24
000
FTUS41 KLWX 022300
TAFDCA
TAF
KDCA 022325Z 0300/0324 22005KT P6SM VCTS BKN050CB BKN200
      TEMPO 0300/0301 VRB15KT 5SM -TSRA OVC015CB
     FM030200 28005KT P6SM SCT050 BKN200
     FM030800 31005KT P6SM FEW050 SCT200
     FM031600 36005KT P6SM FEW050
     FM032200 07005KT P6SM FEW050=

USA.gov is the U.S. government's official web portal to all federal, state and local government web resources and services.